sensor_id;sensor_type;location;lat;lon;timestamp;P1;durP1;ratioP1;P2;durP2;ratioP2
19653;SDS011;9975;48.046;7.804;2023-02-15T01:57:02;25.95;;;10.63;;
19653;SDS011;9975;48.046;7.804;2023-02-15T01:59:30;28.80;;;13.75;;
19653;SDS011;9975;48.046;7.804;2023-02-15T02:01:58;25.23;;;12.00;;
19653;SDS011;9975;48.046;7.804;2023-02-15T02:06:57;25.13;;;11.88;;
19653;SDS011;9975;48.046;7.804;2023-02-15T02:09:23;24.00;;;13.07;;
19653;SDS011;9975;48.046;7.804;2023-02-15T02:11:49;24.27;;;11.90;;
19653;SDS011;9975;48.046;7.804;2023-02-15T02:14:16;29.23;;;12.25;;
19653;SDS011;9975;48.046;7.804;2023-02-15T02:16:46;32.35;;;11.75;;
19653;SDS011;9975;48.046;7.804;2023-02-15T02:22:07;23.27;;;10.52;;
19653;SDS011;9975;48.046;7.804;2023-02-15T02:27:41;34.47;;;10.93;;
19653;SDS011;9975;48.046;7.804;2023-02-15T02:35:48;21.75;;;11.90;;
19653;SDS011;9975;48.046;7.804;2023-02-15T02:38:27;30.27;;;10.57;;
19653;SDS011;9975;48.046;7.804;2023-02-15T02:46:54;36.75;;;10.00;;
19653;SDS011;9975;48.046;7.804;2023-02-15T02:49:28;26.42;;;9.63;;
19653;SDS011;9975;48.046;7.804;2023-02-15T02:52:00;21.20;;;9.43;;
19653;SDS011;9975;48.046;7.804;2023-02-15T02:54:28;25.90;;;11.52;;
19653;SDS011;9975;48.046;7.804;2023-02-15T02:56:55;19.95;;;10.85;;
19653;SDS011;9975;48.046;7.804;2023-02-15T02:59:27;29.05;;;9.93;;
19653;SDS011;9975;48.046;7.804;2023-02-15T03:04:37;21.05;;;9.75;;
19653;SDS011;9975;48.046;7.804;2023-02-15T03:07:07;28.60;;;11.15;;
19653;SDS011;9975;48.046;7.804;2023-02-15T03:09:38;22.90;;;10.60;;
19653;SDS011;9975;48.046;7.804;2023-02-15T03:12:10;24.15;;;10.48;;
19653;SDS011;9975;48.046;7.804;2023-02-15T03:14:39;17.20;;;9.38;;
19653;SDS011;9975;48.046;7.804;2023-02-15T03:17:07;25.58;;;12.13;;
19653;SDS011;9975;48.046;7.804;2023-02-15T03:19:35;27.48;;;11.90;;
19653;SDS011;9975;48.046;7.804;2023-02-15T03:22:18;35.47;;;11.32;;
19653;SDS011;9975;48.046;7.804;2023-02-15T03:27:22;20.90;;;8.90;;
19653;SDS011;9975;48.046;7.804;2023-02-15T03:29:52;24.48;;;10.60;;
19653;SDS011;9975;48.046;7.804;2023-02-15T03:32:21;21.08;;;10.57;;
19653;SDS011;9975;48.046;7.804;2023-02-15T03:34:48;21.92;;;10.05;;
19653;SDS011;9975;48.046;7.804;2023-02-15T03:37:37;27.27;;;11.07;;
19653;SDS011;9975;48.046;7.804;2023-02-15T03:40:11;24.77;;;10.15;;
19653;SDS011;9975;48.046;7.804;2023-02-15T03:43:13;21.08;;;9.55;;
19653;SDS011;9975;48.046;7.804;2023-02-15T03:45:45;29.38;;;10.43;;
19653;SDS011;9975;48.046;7.804;2023-02-15T03:48:26;23.02;;;9.95;;
19653;SDS011;9975;48.046;7.804;2023-02-15T03:50:56;15.48;;;9.43;;
19653;SDS011;9975;48.046;7.804;2023-02-15T03:53:45;24.73;;;9.75;;
19653;SDS011;9975;48.046;7.804;2023-02-15T03:56:13;35.35;;;10.35;;
19653;SDS011;9975;48.046;7.804;2023-02-15T03:58:39;22.33;;;9.23;;
19653;SDS011;9975;48.046;7.804;2023-02-15T04:04:07;16.48;;;8.50;;
19653;SDS011;9975;48.046;7.804;2023-02-15T04:06:43;24.63;;;10.43;;
19653;SDS011;9975;48.046;7.804;2023-02-15T04:09:08;17.93;;;10.17;;
19653;SDS011;9975;48.046;7.804;2023-02-15T04:11:52;22.48;;;9.80;;
19653;SDS011;9975;48.046;7.804;2023-02-15T04:14:18;18.20;;;10.10;;
19653;SDS011;9975;48.046;7.804;2023-02-15T04:17:04;27.08;;;10.20;;
19653;SDS011;9975;48.046;7.804;2023-02-15T04:19:31;17.48;;;8.43;;
19653;SDS011;9975;48.046;7.804;2023-02-15T04:22:15;22.00;;;8.88;;
19653;SDS011;9975;48.046;7.804;2023-02-15T04:24:59;37.63;;;9.85;;
19653;SDS011;9975;48.046;7.804;2023-02-15T04:27:41;27.00;;;10.10;;
19653;SDS011;9975;48.046;7.804;2023-02-15T04:30:08;25.75;;;11.15;;
19653;SDS011;9975;48.046;7.804;2023-02-15T04:32:35;20.80;;;10.10;;
19653;SDS011;9975;48.046;7.804;2023-02-15T04:35:02;26.90;;;11.75;;
19653;SDS011;9975;48.046;7.804;2023-02-15T04:37:27;22.70;;;9.90;;
19653;SDS011;9975;48.046;7.804;2023-02-15T04:39:53;24.17;;;9.33;;
19653;SDS011;9975;48.046;7.804;2023-02-15T04:42:19;16.27;;;9.67;;
19653;SDS011;9975;48.046;7.804;2023-02-15T04:44:44;21.07;;;13.07;;
19653;SDS011;9975;48.046;7.804;2023-02-15T04:47:10;26.63;;;10.00;;
19653;SDS011;9975;48.046;7.804;2023-02-15T04:49:36;25.13;;;10.23;;
19653;SDS011;9975;48.046;7.804;2023-02-15T04:52:01;31.33;;;12.70;;
19653;SDS011;9975;48.046;7.804;2023-02-15T04:54:27;32.60;;;12.80;;
19653;SDS011;9975;48.046;7.804;2023-02-15T04:56:53;29.07;;;11.47;;
19653;SDS011;9975;48.046;7.804;2023-02-15T04:59:18;24.23;;;11.20;;
19653;SDS011;9975;48.046;7.804;2023-02-15T05:01:44;22.00;;;11.03;;
19653;SDS011;9975;48.046;7.804;2023-02-15T05:04:09;27.93;;;10.40;;
19653;SDS011;9975;48.046;7.804;2023-02-15T05:06:35;19.30;;;9.57;;
19653;SDS011;9975;48.046;7.804;2023-02-15T05:09:01;30.07;;;11.00;;
19653;SDS011;9975;48.046;7.804;2023-02-15T05:11:27;17.00;;;9.60;;
19653;SDS011;9975;48.046;7.804;2023-02-15T05:13:52;31.07;;;10.70;;
19653;SDS011;9975;48.046;7.804;2023-02-15T05:16:18;19.13;;;10.77;;
19653;SDS011;9975;48.046;7.804;2023-02-15T05:18:44;20.03;;;10.10;;
19653;SDS011;9975;48.046;7.804;2023-02-15T05:21:09;16.10;;;8.93;;
19653;SDS011;9975;48.046;7.804;2023-02-15T05:23:35;29.17;;;10.60;;
19653;SDS011;9975;48.046;7.804;2023-02-15T05:26:02;18.63;;;9.60;;
19653;SDS011;9975;48.046;7.804;2023-02-15T05:28:47;24.77;;;8.45;;
19653;SDS011;9975;48.046;7.804;2023-02-15T05:31:13;23.53;;;9.07;;
19653;SDS011;9975;48.046;7.804;2023-02-15T05:33:41;16.63;;;10.02;;
19653;SDS011;9975;48.046;7.804;2023-02-15T05:36:07;14.43;;;8.33;;
19653;SDS011;9975;48.046;7.804;2023-02-15T05:38:34;16.38;;;7.45;;
19653;SDS011;9975;48.046;7.804;2023-02-15T05:41:02;20.67;;;9.85;;
19653;SDS011;9975;48.046;7.804;2023-02-15T05:43:31;23.88;;;10.20;;
19653;SDS011;9975;48.046;7.804;2023-02-15T05:45:57;21.77;;;9.05;;
19653;SDS011;9975;48.046;7.804;2023-02-15T05:48:23;24.03;;;8.73;;
19653;SDS011;9975;48.046;7.804;2023-02-15T05:53:45;15.15;;;8.55;;
19653;SDS011;9975;48.046;7.804;2023-02-15T05:56:10;19.50;;;10.20;;
19653;SDS011;9975;48.046;7.804;2023-02-15T05:58:40;24.58;;;9.00;;
19653;SDS011;9975;48.046;7.804;2023-02-15T06:01:14;12.80;;;6.60;;
19653;SDS011;9975;48.046;7.804;2023-02-15T06:03:42;20.38;;;8.48;;
19653;SDS011;9975;48.046;7.804;2023-02-15T06:06:08;17.27;;;9.18;;
19653;SDS011;9975;48.046;7.804;2023-02-15T06:08:34;19.00;;;9.13;;
19653;SDS011;9975;48.046;7.804;2023-02-15T06:11:01;18.73;;;7.65;;
19653;SDS011;9975;48.046;7.804;2023-02-15T06:13:26;15.73;;;7.60;;
19653;SDS011;9975;48.046;7.804;2023-02-15T06:15:52;18.77;;;8.20;;
19653;SDS011;9975;48.046;7.804;2023-02-15T06:18:18;18.07;;;9.03;;
19653;SDS011;9975;48.046;7.804;2023-02-15T06:20:46;20.60;;;8.60;;
19653;SDS011;9975;48.046;7.804;2023-02-15T06:23:13;17.83;;;8.48;;
19653;SDS011;9975;48.046;7.804;2023-02-15T06:25:39;13.55;;;7.65;;
19653;SDS011;9975;48.046;7.804;2023-02-15T06:28:04;35.13;;;12.00;;
19653;SDS011;9975;48.046;7.804;2023-02-15T06:30:30;24.33;;;8.93;;
19653;SDS011;9975;48.046;7.804;2023-02-15T06:32:56;29.70;;;8.95;;
19653;SDS011;9975;48.046;7.804;2023-02-15T06:35:22;16.87;;;9.10;;
19653;SDS011;9975;48.046;7.804;2023-02-15T06:37:47;16.47;;;7.90;;
19653;SDS011;9975;48.046;7.804;2023-02-15T06:40:13;16.73;;;8.50;;
19653;SDS011;9975;48.046;7.804;2023-02-15T06:42:39;22.92;;;10.77;;
19653;SDS011;9975;48.046;7.804;2023-02-15T06:45:06;19.50;;;10.25;;
19653;SDS011;9975;48.046;7.804;2023-02-15T06:47:32;23.20;;;9.00;;
19653;SDS011;9975;48.046;7.804;2023-02-15T06:49:58;17.70;;;9.40;;
19653;SDS011;9975;48.046;7.804;2023-02-15T06:52:24;26.70;;;10.37;;
19653;SDS011;9975;48.046;7.804;2023-02-15T06:54:50;16.53;;;8.63;;
19653;SDS011;9975;48.046;7.804;2023-02-15T06:57:16;16.90;;;9.48;;
19653;SDS011;9975;48.046;7.804;2023-02-15T06:59:41;21.43;;;8.37;;
19653;SDS011;9975;48.046;7.804;2023-02-15T07:02:08;27.60;;;8.63;;
19653;SDS011;9975;48.046;7.804;2023-02-15T07:04:36;18.88;;;9.25;;
19653;SDS011;9975;48.046;7.804;2023-02-15T07:07:01;31.23;;;9.80;;
19653;SDS011;9975;48.046;7.804;2023-02-15T07:09:27;25.80;;;8.30;;
19653;SDS011;9975;48.046;7.804;2023-02-15T07:11:53;21.03;;;9.70;;
19653;SDS011;9975;48.046;7.804;2023-02-15T07:14:37;21.23;;;9.10;;
19653;SDS011;9975;48.046;7.804;2023-02-15T07:17:03;13.60;;;8.20;;
19653;SDS011;9975;48.046;7.804;2023-02-15T07:19:28;16.87;;;8.37;;
19653;SDS011;9975;48.046;7.804;2023-02-15T07:21:54;21.67;;;7.40;;
19653;SDS011;9975;48.046;7.804;2023-02-15T07:24:20;16.90;;;8.53;;
19653;SDS011;9975;48.046;7.804;2023-02-15T07:26:45;18.33;;;9.30;;
19653;SDS011;9975;48.046;7.804;2023-02-15T07:29:11;21.00;;;8.25;;
19653;SDS011;9975;48.046;7.804;2023-02-15T07:31:37;16.57;;;8.67;;
19653;SDS011;9975;48.046;7.804;2023-02-15T07:34:03;18.87;;;7.87;;
19653;SDS011;9975;48.046;7.804;2023-02-15T07:36:31;16.08;;;9.27;;
19653;SDS011;9975;48.046;7.804;2023-02-15T07:38:57;19.38;;;9.38;;
19653;SDS011;9975;48.046;7.804;2023-02-15T07:41:23;26.10;;;8.83;;
19653;SDS011;9975;48.046;7.804;2023-02-15T07:43:49;20.13;;;8.20;;
19653;SDS011;9975;48.046;7.804;2023-02-15T07:46:15;18.97;;;9.37;;
19653;SDS011;9975;48.046;7.804;2023-02-15T07:48:43;17.40;;;9.75;;
19653;SDS011;9975;48.046;7.804;2023-02-15T07:51:09;18.80;;;9.93;;
19653;SDS011;9975;48.046;7.804;2023-02-15T07:53:36;24.10;;;10.20;;
19653;SDS011;9975;48.046;7.804;2023-02-15T07:56:04;20.90;;;10.02;;
19653;SDS011;9975;48.046;7.804;2023-02-15T07:58:35;17.73;;;10.27;;
19653;SDS011;9975;48.046;7.804;2023-02-15T08:01:21;22.60;;;11.55;;
19653;SDS011;9975;48.046;7.804;2023-02-15T08:03:47;19.45;;;10.50;;
19653;SDS011;9975;48.046;7.804;2023-02-15T08:06:13;34.50;;;11.73;;
19653;SDS011;9975;48.046;7.804;2023-02-15T08:08:39;24.13;;;10.27;;
19653;SDS011;9975;48.046;7.804;2023-02-15T08:14:16;19.02;;;9.77;;
19653;SDS011;9975;48.046;7.804;2023-02-15T08:19:10;15.50;;;9.33;;
19653;SDS011;9975;48.046;7.804;2023-02-15T08:21:39;23.92;;;10.27;;
19653;SDS011;9975;48.046;7.804;2023-02-15T08:24:08;21.70;;;8.65;;
19653;SDS011;9975;48.046;7.804;2023-02-15T08:26:35;14.95;;;8.45;;
19653;SDS011;9975;48.046;7.804;2023-02-15T08:29:03;18.17;;;9.80;;
19653;SDS011;9975;48.046;7.804;2023-02-15T08:31:31;21.02;;;9.88;;
19653;SDS011;9975;48.046;7.804;2023-02-15T08:33:57;19.73;;;8.90;;
19653;SDS011;9975;48.046;7.804;2023-02-15T08:36:25;19.95;;;9.23;;
19653;SDS011;9975;48.046;7.804;2023-02-15T08:38:52;21.92;;;10.38;;
19653;SDS011;9975;48.046;7.804;2023-02-15T08:41:19;22.87;;;9.90;;
19653;SDS011;9975;48.046;7.804;2023-02-15T08:44:04;15.10;;;9.00;;
19653;SDS011;9975;48.046;7.804;2023-02-15T08:46:35;16.27;;;8.50;;
19653;SDS011;9975;48.046;7.804;2023-02-15T08:49:02;17.75;;;10.20;;
19653;SDS011;9975;48.046;7.804;2023-02-15T08:51:32;15.35;;;9.23;;
19653;SDS011;9975;48.046;7.804;2023-02-15T08:54:00;21.83;;;10.20;;
19653;SDS011;9975;48.046;7.804;2023-02-15T08:56:29;18.20;;;9.50;;
19653;SDS011;9975;48.046;7.804;2023-02-15T08:58:57;24.08;;;9.60;;
19653;SDS011;9975;48.046;7.804;2023-02-15T09:01:25;21.45;;;9.05;;
19653;SDS011;9975;48.046;7.804;2023-02-15T09:03:55;18.42;;;9.10;;
19653;SDS011;9975;48.046;7.804;2023-02-15T09:06:22;18.23;;;9.75;;
19653;SDS011;9975;48.046;7.804;2023-02-15T09:08:49;20.52;;;9.57;;
19653;SDS011;9975;48.046;7.804;2023-02-15T09:11:16;14.73;;;9.20;;
19653;SDS011;9975;48.046;7.804;2023-02-15T09:13:51;19.27;;;9.77;;
19653;SDS011;9975;48.046;7.804;2023-02-15T09:16:20;18.20;;;8.90;;
19653;SDS011;9975;48.046;7.804;2023-02-15T09:18:46;14.30;;;8.10;;
19653;SDS011;9975;48.046;7.804;2023-02-15T09:21:16;17.08;;;9.80;;
19653;SDS011;9975;48.046;7.804;2023-02-15T09:23:45;19.83;;;8.88;;
19653;SDS011;9975;48.046;7.804;2023-02-15T09:26:13;15.52;;;8.32;;
19653;SDS011;9975;48.046;7.804;2023-02-15T09:28:44;16.60;;;8.68;;
19653;SDS011;9975;48.046;7.804;2023-02-15T09:33:37;14.93;;;9.23;;
19653;SDS011;9975;48.046;7.804;2023-02-15T09:36:05;20.45;;;8.65;;
19653;SDS011;9975;48.046;7.804;2023-02-15T09:38:39;16.85;;;9.10;;
19653;SDS011;9975;48.046;7.804;2023-02-15T09:46:23;13.45;;;8.43;;
19653;SDS011;9975;48.046;7.804;2023-02-15T09:48:52;13.88;;;8.35;;
19653;SDS011;9975;48.046;7.804;2023-02-15T09:54:17;19.30;;;8.88;;
19653;SDS011;9975;48.046;7.804;2023-02-15T09:56:48;17.45;;;9.02;;
19653;SDS011;9975;48.046;7.804;2023-02-15T10:04:59;15.35;;;9.32;;
19653;SDS011;9975;48.046;7.804;2023-02-15T10:08:05;20.10;;;10.30;;
19653;SDS011;9975;48.046;7.804;2023-02-15T10:11:29;22.27;;;11.68;;
19653;SDS011;9975;48.046;7.804;2023-02-15T10:16:48;24.88;;;10.50;;
19653;SDS011;9975;48.046;7.804;2023-02-15T10:19:59;25.95;;;10.57;;
19653;SDS011;9975;48.046;7.804;2023-02-15T10:22:15;24.08;;;10.95;;
19653;SDS011;9975;48.046;7.804;2023-02-15T10:25:13;18.75;;;9.70;;
19653;SDS011;9975;48.046;7.804;2023-02-15T10:27:54;24.27;;;12.85;;
19653;SDS011;9975;48.046;7.804;2023-02-15T10:30:29;23.08;;;11.25;;
19653;SDS011;9975;48.046;7.804;2023-02-15T10:35:36;22.45;;;13.98;;
19653;SDS011;9975;48.046;7.804;2023-02-15T10:41:07;18.50;;;11.40;;
19653;SDS011;9975;48.046;7.804;2023-02-15T10:44:02;24.75;;;11.80;;
19653;SDS011;9975;48.046;7.804;2023-02-15T10:54:56;23.27;;;10.88;;
19653;SDS011;9975;48.046;7.804;2023-02-15T10:57:47;16.90;;;10.63;;
19653;SDS011;9975;48.046;7.804;2023-02-15T11:01:10;19.50;;;10.65;;
19653;SDS011;9975;48.046;7.804;2023-02-15T11:06:01;19.65;;;11.23;;
19653;SDS011;9975;48.046;7.804;2023-02-15T11:08:31;22.40;;;10.90;;
19653;SDS011;9975;48.046;7.804;2023-02-15T11:11:06;18.77;;;11.30;;
19653;SDS011;9975;48.046;7.804;2023-02-15T11:13:42;19.67;;;11.38;;
19653;SDS011;9975;48.046;7.804;2023-02-15T11:16:14;19.38;;;12.40;;
19653;SDS011;9975;48.046;7.804;2023-02-15T11:21:39;17.42;;;11.35;;
19653;SDS011;9975;48.046;7.804;2023-02-15T11:24:12;25.40;;;12.52;;
19653;SDS011;9975;48.046;7.804;2023-02-15T11:26:43;21.50;;;10.57;;
19653;SDS011;9975;48.046;7.804;2023-02-15T11:29:30;19.17;;;11.48;;
19653;SDS011;9975;48.046;7.804;2023-02-15T11:32:20;19.27;;;12.00;;
19653;SDS011;9975;48.046;7.804;2023-02-15T11:40:48;18.35;;;10.55;;
19653;SDS011;9975;48.046;7.804;2023-02-15T11:43:18;18.92;;;10.73;;
19653;SDS011;9975;48.046;7.804;2023-02-15T11:45:59;16.75;;;9.77;;
19653;SDS011;9975;48.046;7.804;2023-02-15T11:48:25;20.87;;;10.70;;
19653;SDS011;9975;48.046;7.804;2023-02-15T11:50:51;20.95;;;12.10;;
19653;SDS011;9975;48.046;7.804;2023-02-15T11:53:20;16.00;;;10.57;;
19653;SDS011;9975;48.046;7.804;2023-02-15T11:55:52;22.17;;;11.30;;
19653;SDS011;9975;48.046;7.804;2023-02-15T12:09:36;17.53;;;9.70;;
19653;SDS011;9975;48.046;7.804;2023-02-15T12:12:25;21.90;;;11.40;;
19653;SDS011;9975;48.046;7.804;2023-02-15T12:15:00;23.07;;;10.30;;
19653;SDS011;9975;48.046;7.804;2023-02-15T12:17:32;19.40;;;10.73;;
19653;SDS011;9975;48.046;7.804;2023-02-15T12:20:01;14.67;;;9.70;;
19653;SDS011;9975;48.046;7.804;2023-02-15T12:22:49;15.97;;;10.83;;
19653;SDS011;9975;48.046;7.804;2023-02-15T12:25:35;22.03;;;12.77;;
19653;SDS011;9975;48.046;7.804;2023-02-15T12:28:03;14.33;;;11.30;;
19653;SDS011;9975;48.046;7.804;2023-02-15T12:30:41;25.03;;;13.67;;
19653;SDS011;9975;48.046;7.804;2023-02-15T12:33:17;23.57;;;13.53;;
19653;SDS011;9975;48.046;7.804;2023-02-15T12:36:27;18.73;;;11.53;;
19653;SDS011;9975;48.046;7.804;2023-02-15T12:41:38;19.20;;;11.73;;
19653;SDS011;9975;48.046;7.804;2023-02-15T12:44:22;18.57;;;12.00;;
19653;SDS011;9975;48.046;7.804;2023-02-15T12:49:43;19.53;;;12.77;;
19653;SDS011;9975;48.046;7.804;2023-02-15T12:52:28;16.20;;;11.90;;
19653;SDS011;9975;48.046;7.804;2023-02-15T12:54:54;15.37;;;11.43;;
19653;SDS011;9975;48.046;7.804;2023-02-15T12:59:58;16.23;;;11.73;;
19653;SDS011;9975;48.046;7.804;2023-02-15T13:04:55;15.73;;;11.67;;
19653;SDS011;9975;48.046;7.804;2023-02-15T13:07:23;15.30;;;10.93;;
19653;SDS011;9975;48.046;7.804;2023-02-15T13:09:54;14.83;;;10.60;;
19653;SDS011;9975;48.046;7.804;2023-02-15T13:12:21;20.97;;;13.23;;
19653;SDS011;9975;48.046;7.804;2023-02-15T13:14:51;15.97;;;11.00;;
19653;SDS011;9975;48.046;7.804;2023-02-15T13:17:26;14.40;;;10.83;;
19653;SDS011;9975;48.046;7.804;2023-02-15T13:19:55;23.10;;;14.17;;
19653;SDS011;9975;48.046;7.804;2023-02-15T13:22:57;17.17;;;11.20;;
19653;SDS011;9975;48.046;7.804;2023-02-15T13:25:27;19.10;;;12.17;;
19653;SDS011;9975;48.046;7.804;2023-02-15T13:28:00;15.10;;;11.23;;
19653;SDS011;9975;48.046;7.804;2023-02-15T13:30:30;14.43;;;10.00;;
19653;SDS011;9975;48.046;7.804;2023-02-15T13:33:10;16.43;;;11.17;;
19653;SDS011;9975;48.046;7.804;2023-02-15T13:35:54;27.33;;;17.47;;
19653;SDS011;9975;48.046;7.804;2023-02-15T13:41:33;25.27;;;16.10;;
19653;SDS011;9975;48.046;7.804;2023-02-15T13:52:41;15.60;;;10.00;;
19653;SDS011;9975;48.046;7.804;2023-02-15T14:04:17;18.27;;;11.07;;
19653;SDS011;9975;48.046;7.804;2023-02-15T14:12:42;14.87;;;11.23;;
19653;SDS011;9975;48.046;7.804;2023-02-15T14:15:42;16.73;;;12.13;;
19653;SDS011;9975;48.046;7.804;2023-02-15T14:18:33;15.47;;;11.27;;
19653;SDS011;9975;48.046;7.804;2023-02-15T14:21:21;15.27;;;10.57;;
19653;SDS011;9975;48.046;7.804;2023-02-15T14:24:14;13.77;;;10.27;;
19653;SDS011;9975;48.046;7.804;2023-02-15T14:30:16;12.17;;;9.97;;
19653;SDS011;9975;48.046;7.804;2023-02-15T14:32:13;17.47;;;11.37;;
19653;SDS011;9975;48.046;7.804;2023-02-15T14:38:20;13.10;;;10.83;;
19653;SDS011;9975;48.046;7.804;2023-02-15T14:49:32;16.17;;;12.27;;
19653;SDS011;9975;48.046;7.804;2023-02-15T14:52:08;13.43;;;10.67;;
19653;SDS011;9975;48.046;7.804;2023-02-15T15:04:38;17.57;;;12.27;;
19653;SDS011;9975;48.046;7.804;2023-02-15T15:09:40;15.20;;;10.90;;
19653;SDS011;9975;48.046;7.804;2023-02-15T15:12:14;21.53;;;12.43;;
19653;SDS011;9975;48.046;7.804;2023-02-15T15:15:00;16.30;;;12.47;;
19653;SDS011;9975;48.046;7.804;2023-02-15T15:20:13;15.43;;;10.23;;
19653;SDS011;9975;48.046;7.804;2023-02-15T15:23:36;19.77;;;11.67;;
19653;SDS011;9975;48.046;7.804;2023-02-15T15:25:41;12.60;;;10.40;;
19653;SDS011;9975;48.046;7.804;2023-02-15T15:28:22;18.17;;;12.20;;
19653;SDS011;9975;48.046;7.804;2023-02-15T15:31:09;18.80;;;11.80;;
19653;SDS011;9975;48.046;7.804;2023-02-15T15:47:45;23.97;;;15.77;;
19653;SDS011;9975;48.046;7.804;2023-02-15T15:50:34;19.80;;;13.97;;
19653;SDS011;9975;48.046;7.804;2023-02-15T15:53:03;21.37;;;15.20;;
19653;SDS011;9975;48.046;7.804;2023-02-15T15:55:30;18.83;;;14.50;;
19653;SDS011;9975;48.046;7.804;2023-02-15T15:58:07;24.83;;;15.03;;
19653;SDS011;9975;48.046;7.804;2023-02-15T16:00:53;23.63;;;15.93;;
19653;SDS011;9975;48.046;7.804;2023-02-15T16:03:28;29.03;;;17.67;;
19653;SDS011;9975;48.046;7.804;2023-02-15T16:05:53;23.07;;;16.10;;
19653;SDS011;9975;48.046;7.804;2023-02-15T16:11:00;24.83;;;15.77;;
19653;SDS011;9975;48.046;7.804;2023-02-15T16:13:36;33.07;;;18.43;;
19653;SDS011;9975;48.046;7.804;2023-02-15T16:16:04;30.00;;;17.77;;
19653;SDS011;9975;48.046;7.804;2023-02-15T16:18:31;29.70;;;17.37;;
19653;SDS011;9975;48.046;7.804;2023-02-15T16:21:00;36.77;;;20.30;;
19653;SDS011;9975;48.046;7.804;2023-02-15T16:28:37;34.93;;;20.80;;
19653;SDS011;9975;48.046;7.804;2023-02-15T16:33:37;37.97;;;21.20;;
19653;SDS011;9975;48.046;7.804;2023-02-15T16:36:04;37.77;;;21.20;;
19653;SDS011;9975;48.046;7.804;2023-02-15T16:41:07;34.83;;;20.13;;
19653;SDS011;9975;48.046;7.804;2023-02-15T16:43:39;39.80;;;19.90;;
19653;SDS011;9975;48.046;7.804;2023-02-15T16:46:10;34.47;;;19.50;;
19653;SDS011;9975;48.046;7.804;2023-02-15T16:48:43;33.30;;;20.07;;
19653;SDS011;9975;48.046;7.804;2023-02-15T16:51:18;30.70;;;17.67;;
19653;SDS011;9975;48.046;7.804;2023-02-15T16:53:47;36.20;;;20.90;;
19653;SDS011;9975;48.046;7.804;2023-02-15T16:56:13;34.23;;;19.50;;
19653;SDS011;9975;48.046;7.804;2023-02-15T16:58:41;38.17;;;20.70;;
19653;SDS011;9975;48.046;7.804;2023-02-15T17:01:10;36.63;;;20.90;;
19653;SDS011;9975;48.046;7.804;2023-02-15T17:03:39;38.37;;;20.53;;
19653;SDS011;9975;48.046;7.804;2023-02-15T17:06:18;33.37;;;19.77;;
19653;SDS011;9975;48.046;7.804;2023-02-15T17:08:52;33.33;;;19.30;;
19653;SDS011;9975;48.046;7.804;2023-02-15T17:11:34;36.13;;;19.77;;
19653;SDS011;9975;48.046;7.804;2023-02-15T17:19:03;45.40;;;21.80;;
19653;SDS011;9975;48.046;7.804;2023-02-15T17:21:43;43.40;;;23.47;;
19653;SDS011;9975;48.046;7.804;2023-02-15T17:24:17;40.17;;;20.57;;
19653;SDS011;9975;48.046;7.804;2023-02-15T17:26:49;36.37;;;18.50;;
19653;SDS011;9975;48.046;7.804;2023-02-15T17:31:51;45.13;;;23.90;;
19653;SDS011;9975;48.046;7.804;2023-02-15T17:37:11;40.00;;;21.15;;
19653;SDS011;9975;48.046;7.804;2023-02-15T17:39:56;40.75;;;20.60;;
19653;SDS011;9975;48.046;7.804;2023-02-15T17:42:23;48.38;;;22.23;;
19653;SDS011;9975;48.046;7.804;2023-02-15T17:44:49;134.47;;;43.20;;
19653;SDS011;9975;48.046;7.804;2023-02-15T17:47:15;60.20;;;26.07;;
19653;SDS011;9975;48.046;7.804;2023-02-15T17:49:44;42.00;;;22.58;;
19653;SDS011;9975;48.046;7.804;2023-02-15T17:52:13;34.55;;;20.27;;
19653;SDS011;9975;48.046;7.804;2023-02-15T17:54:40;40.03;;;23.67;;
19653;SDS011;9975;48.046;7.804;2023-02-15T17:57:24;42.40;;;22.30;;
19653;SDS011;9975;48.046;7.804;2023-02-15T17:59:51;41.17;;;23.00;;
19653;SDS011;9975;48.046;7.804;2023-02-15T18:02:35;43.80;;;22.67;;
19653;SDS011;9975;48.046;7.804;2023-02-15T18:05:19;49.22;;;22.80;;
19653;SDS011;9975;48.046;7.804;2023-02-15T18:08:05;48.72;;;25.58;;
19653;SDS011;9975;48.046;7.804;2023-02-15T18:10:59;42.78;;;22.70;;
19653;SDS011;9975;48.046;7.804;2023-02-15T18:13:44;47.90;;;23.63;;
19653;SDS011;9975;48.046;7.804;2023-02-15T18:16:13;53.67;;;24.80;;
19653;SDS011;9975;48.046;7.804;2023-02-15T18:18:42;47.05;;;23.75;;
19653;SDS011;9975;48.046;7.804;2023-02-15T18:21:09;48.75;;;26.10;;
19653;SDS011;9975;48.046;7.804;2023-02-15T18:23:36;39.95;;;21.90;;
19653;SDS011;9975;48.046;7.804;2023-02-15T18:26:02;45.92;;;24.30;;
19653;SDS011;9975;48.046;7.804;2023-02-15T18:28:28;45.20;;;21.08;;
19653;SDS011;9975;48.046;7.804;2023-02-15T18:30:55;42.83;;;21.77;;
19653;SDS011;9975;48.046;7.804;2023-02-15T18:33:28;37.15;;;21.52;;
19653;SDS011;9975;48.046;7.804;2023-02-15T18:36:02;47.75;;;22.83;;
19653;SDS011;9975;48.046;7.804;2023-02-15T18:38:30;34.42;;;19.35;;
19653;SDS011;9975;48.046;7.804;2023-02-15T18:40:56;40.07;;;22.13;;
19653;SDS011;9975;48.046;7.804;2023-02-15T18:43:22;47.73;;;20.93;;
19653;SDS011;9975;48.046;7.804;2023-02-15T18:45:47;47.20;;;22.30;;
19653;SDS011;9975;48.046;7.804;2023-02-15T18:48:14;49.38;;;22.15;;
19653;SDS011;9975;48.046;7.804;2023-02-15T18:50:40;69.90;;;30.27;;
19653;SDS011;9975;48.046;7.804;2023-02-15T18:53:06;41.20;;;24.53;;
19653;SDS011;9975;48.046;7.804;2023-02-15T18:55:41;43.33;;;25.25;;
19653;SDS011;9975;48.046;7.804;2023-02-15T18:58:08;45.33;;;26.55;;
19653;SDS011;9975;48.046;7.804;2023-02-15T19:00:39;48.00;;;24.08;;
19653;SDS011;9975;48.046;7.804;2023-02-15T19:06:26;42.00;;;23.65;;
19653;SDS011;9975;48.046;7.804;2023-02-15T19:08:53;35.72;;;19.40;;
19653;SDS011;9975;48.046;7.804;2023-02-15T19:11:20;38.77;;;21.13;;
19653;SDS011;9975;48.046;7.804;2023-02-15T19:13:47;51.22;;;22.75;;
19653;SDS011;9975;48.046;7.804;2023-02-15T19:16:18;44.88;;;22.17;;
19653;SDS011;9975;48.046;7.804;2023-02-15T19:18:55;50.65;;;25.95;;
19653;SDS011;9975;48.046;7.804;2023-02-15T19:21:20;41.20;;;21.30;;
19653;SDS011;9975;48.046;7.804;2023-02-15T19:23:55;38.65;;;21.67;;
19653;SDS011;9975;48.046;7.804;2023-02-15T19:26:39;51.20;;;25.95;;
19653;SDS011;9975;48.046;7.804;2023-02-15T19:29:06;45.10;;;25.23;;
19653;SDS011;9975;48.046;7.804;2023-02-15T19:31:34;45.75;;;24.90;;
19653;SDS011;9975;48.046;7.804;2023-02-15T19:34:00;44.50;;;22.57;;
19653;SDS011;9975;48.046;7.804;2023-02-15T19:36:26;46.80;;;21.03;;
19653;SDS011;9975;48.046;7.804;2023-02-15T19:38:52;40.70;;;22.17;;
19653;SDS011;9975;48.046;7.804;2023-02-15T19:41:22;43.13;;;22.00;;
19653;SDS011;9975;48.046;7.804;2023-02-15T19:43:52;45.22;;;22.80;;
19653;SDS011;9975;48.046;7.804;2023-02-15T19:46:19;46.17;;;22.40;;
19653;SDS011;9975;48.046;7.804;2023-02-15T19:48:50;46.75;;;21.92;;
19653;SDS011;9975;48.046;7.804;2023-02-15T19:51:17;45.75;;;22.85;;
19653;SDS011;9975;48.046;7.804;2023-02-15T19:53:44;40.20;;;21.90;;
19653;SDS011;9975;48.046;7.804;2023-02-15T19:56:13;40.17;;;20.98;;
19653;SDS011;9975;48.046;7.804;2023-02-15T19:58:45;44.53;;;22.90;;
19653;SDS011;9975;48.046;7.804;2023-02-15T20:01:11;45.27;;;23.70;;
19653;SDS011;9975;48.046;7.804;2023-02-15T20:03:36;48.70;;;22.00;;
19653;SDS011;9975;48.046;7.804;2023-02-15T20:06:02;48.20;;;21.00;;
19653;SDS011;9975;48.046;7.804;2023-02-15T20:08:28;39.53;;;20.98;;
19653;SDS011;9975;48.046;7.804;2023-02-15T20:10:56;36.78;;;18.35;;
19653;SDS011;9975;48.046;7.804;2023-02-15T20:13:23;39.67;;;19.25;;
19653;SDS011;9975;48.046;7.804;2023-02-15T20:15:49;41.75;;;20.15;;
19653;SDS011;9975;48.046;7.804;2023-02-15T20:18:15;47.83;;;21.00;;
19653;SDS011;9975;48.046;7.804;2023-02-15T20:20:43;49.80;;;19.47;;